Dublin, Ohio
Current Conditions -  °F | °C
As of 10:53 AM on Saturday 20 Dec 2014 (Local Time) from KOSU Reporting Station
Overcast Overcast  
Wind Chill: 25°   Ceiling: 1900
Heat Index: 30°   Visibility: 7mi
Dew Point: 23°   Wind: 5mph
Humidity: 75%   Direction: 20°NNE
Pressure: 30.28"   Gusts: NA
Location:  40.11°N, 83.13°W
Report Text: KOSU 201553Z 02004KT 7SM OVC019 M01/M05 A3028 RMK AO2 SLP263 T10111050
Loading
Personal Weather Stations






























Interactive Weather Map New forecast layout! Learn more

10-Day Weather Forecast

Advertisements
Track Severe Weather on mobile